sensor_id;sensor_type;location;lat;lon;timestamp;P1;durP1;ratioP1;P2;durP2;ratioP2
22774;SDS011;11554;51.106;3.684;2022-08-21T00:00:00;8.80;;;2.90;;
22774;SDS011;11554;51.106;3.684;2022-08-21T00:05:00;8.80;;;2.90;;
22774;SDS011;11554;51.106;3.684;2022-08-21T00:10:00;7.60;;;2.50;;
22774;SDS011;11554;51.106;3.684;2022-08-21T00:15:00;7.60;;;2.50;;
22774;SDS011;11554;51.106;3.684;2022-08-21T00:20:00;7.30;;;2.50;;
22774;SDS011;11554;51.106;3.684;2022-08-21T00:25:00;7.30;;;2.50;;
22774;SDS011;11554;51.106;3.684;2022-08-21T00:30:00;6.70;;;2.50;;
22774;SDS011;11554;51.106;3.684;2022-08-21T00:35:00;6.70;;;2.50;;
22774;SDS011;11554;51.106;3.684;2022-08-21T00:40:00;6.70;;;2.80;;
22774;SDS011;11554;51.106;3.684;2022-08-21T00:45:00;6.70;;;2.80;;
22774;SDS011;11554;51.106;3.684;2022-08-21T00:50:00;9.80;;;2.80;;
22774;SDS011;11554;51.106;3.684;2022-08-21T00:55:01;9.80;;;2.80;;
22774;SDS011;11554;51.106;3.684;2022-08-21T01:00:04;7.50;;;2.50;;
22774;SDS011;11554;51.106;3.684;2022-08-21T01:05:00;7.50;;;2.50;;
22774;SDS011;11554;51.106;3.684;2022-08-21T01:10:00;9.50;;;2.80;;
22774;SDS011;11554;51.106;3.684;2022-08-21T01:15:01;9.50;;;2.80;;
22774;SDS011;11554;51.106;3.684;2022-08-21T01:20:01;6.90;;;2.30;;
22774;SDS011;11554;51.106;3.684;2022-08-21T01:25:00;6.90;;;2.30;;
22774;SDS011;11554;51.106;3.684;2022-08-21T01:30:07;7.60;;;2.30;;
22774;SDS011;11554;51.106;3.684;2022-08-21T01:35:00;7.60;;;2.30;;
22774;SDS011;11554;51.106;3.684;2022-08-21T01:40:00;7.30;;;2.20;;
22774;SDS011;11554;51.106;3.684;2022-08-21T01:45:00;7.30;;;2.20;;
22774;SDS011;11554;51.106;3.684;2022-08-21T01:50:01;6.70;;;2.60;;
22774;SDS011;11554;51.106;3.684;2022-08-21T01:55:00;6.70;;;2.60;;
22774;SDS011;11554;51.106;3.684;2022-08-21T02:00:00;7.50;;;2.30;;
22774;SDS011;11554;51.106;3.684;2022-08-21T02:05:00;7.50;;;2.30;;
22774;SDS011;11554;51.106;3.684;2022-08-21T02:10:00;5.70;;;2.10;;
22774;SDS011;11554;51.106;3.684;2022-08-21T02:15:00;5.70;;;2.10;;
22774;SDS011;11554;51.106;3.684;2022-08-21T02:20:00;10.40;;;2.60;;
22774;SDS011;11554;51.106;3.684;2022-08-21T02:25:00;10.40;;;2.60;;
22774;SDS011;11554;51.106;3.684;2022-08-21T02:30:00;10.80;;;2.70;;
22774;SDS011;11554;51.106;3.684;2022-08-21T02:35:00;10.80;;;2.70;;
22774;SDS011;11554;51.106;3.684;2022-08-21T02:40:00;7.50;;;2.00;;
22774;SDS011;11554;51.106;3.684;2022-08-21T02:45:00;7.50;;;2.00;;
22774;SDS011;11554;51.106;3.684;2022-08-21T02:50:00;7.90;;;2.30;;
22774;SDS011;11554;51.106;3.684;2022-08-21T02:55:00;7.90;;;2.30;;
22774;SDS011;11554;51.106;3.684;2022-08-21T03:00:00;9.80;;;2.50;;
22774;SDS011;11554;51.106;3.684;2022-08-21T03:05:00;9.80;;;2.50;;
22774;SDS011;11554;51.106;3.684;2022-08-21T03:10:00;7.80;;;2.00;;
22774;SDS011;11554;51.106;3.684;2022-08-21T03:15:00;7.80;;;2.00;;
22774;SDS011;11554;51.106;3.684;2022-08-21T03:20:00;8.10;;;2.40;;
22774;SDS011;11554;51.106;3.684;2022-08-21T03:25:00;8.10;;;2.40;;
22774;SDS011;11554;51.106;3.684;2022-08-21T03:30:00;6.00;;;2.10;;
22774;SDS011;11554;51.106;3.684;2022-08-21T03:35:00;6.00;;;2.10;;
22774;SDS011;11554;51.106;3.684;2022-08-21T03:40:00;7.80;;;2.20;;
22774;SDS011;11554;51.106;3.684;2022-08-21T03:45:00;7.80;;;2.20;;
22774;SDS011;11554;51.106;3.684;2022-08-21T03:50:00;6.70;;;2.10;;
22774;SDS011;11554;51.106;3.684;2022-08-21T03:55:00;6.70;;;2.10;;
22774;SDS011;11554;51.106;3.684;2022-08-21T04:00:00;9.60;;;2.50;;
22774;SDS011;11554;51.106;3.684;2022-08-21T04:05:00;9.60;;;2.50;;
22774;SDS011;11554;51.106;3.684;2022-08-21T04:10:00;9.50;;;2.80;;
22774;SDS011;11554;51.106;3.684;2022-08-21T04:15:00;9.50;;;2.80;;
22774;SDS011;11554;51.106;3.684;2022-08-21T04:20:00;9.30;;;2.30;;
22774;SDS011;11554;51.106;3.684;2022-08-21T04:25:00;9.30;;;2.30;;
22774;SDS011;11554;51.106;3.684;2022-08-21T04:30:00;10.00;;;2.50;;
22774;SDS011;11554;51.106;3.684;2022-08-21T04:35:02;10.00;;;2.50;;
22774;SDS011;11554;51.106;3.684;2022-08-21T04:40:00;10.00;;;2.10;;
22774;SDS011;11554;51.106;3.684;2022-08-21T04:45:00;10.00;;;2.10;;
22774;SDS011;11554;51.106;3.684;2022-08-21T04:50:00;9.90;;;2.50;;
22774;SDS011;11554;51.106;3.684;2022-08-21T04:55:00;9.90;;;2.50;;
22774;SDS011;11554;51.106;3.684;2022-08-21T05:00:00;7.40;;;2.30;;
22774;SDS011;11554;51.106;3.684;2022-08-21T05:05:00;7.40;;;2.30;;
22774;SDS011;11554;51.106;3.684;2022-08-21T05:10:00;9.10;;;2.70;;
22774;SDS011;11554;51.106;3.684;2022-08-21T05:15:00;9.10;;;2.70;;
22774;SDS011;11554;51.106;3.684;2022-08-21T05:20:00;8.70;;;2.90;;
22774;SDS011;11554;51.106;3.684;2022-08-21T05:25:00;8.70;;;2.90;;
22774;SDS011;11554;51.106;3.684;2022-08-21T05:30:00;7.40;;;2.50;;
22774;SDS011;11554;51.106;3.684;2022-08-21T05:35:00;7.40;;;2.50;;
22774;SDS011;11554;51.106;3.684;2022-08-21T05:40:00;7.70;;;2.40;;
22774;SDS011;11554;51.106;3.684;2022-08-21T05:45:00;7.70;;;2.40;;
22774;SDS011;11554;51.106;3.684;2022-08-21T05:50:00;10.50;;;2.90;;
22774;SDS011;11554;51.106;3.684;2022-08-21T05:55:00;10.50;;;2.90;;
22774;SDS011;11554;51.106;3.684;2022-08-21T06:00:00;10.20;;;2.60;;
22774;SDS011;11554;51.106;3.684;2022-08-21T06:05:00;10.20;;;2.60;;
22774;SDS011;11554;51.106;3.684;2022-08-21T06:10:00;9.70;;;3.00;;
22774;SDS011;11554;51.106;3.684;2022-08-21T06:15:00;9.70;;;3.00;;
22774;SDS011;11554;51.106;3.684;2022-08-21T06:20:00;10.40;;;3.40;;
22774;SDS011;11554;51.106;3.684;2022-08-21T06:25:00;10.40;;;3.40;;
22774;SDS011;11554;51.106;3.684;2022-08-21T06:30:00;11.70;;;3.30;;
22774;SDS011;11554;51.106;3.684;2022-08-21T06:35:00;11.70;;;3.30;;
22774;SDS011;11554;51.106;3.684;2022-08-21T06:40:00;11.70;;;2.90;;
22774;SDS011;11554;51.106;3.684;2022-08-21T06:45:00;11.70;;;2.90;;
22774;SDS011;11554;51.106;3.684;2022-08-21T06:50:00;9.40;;;2.80;;
22774;SDS011;11554;51.106;3.684;2022-08-21T06:55:00;9.40;;;2.80;;
22774;SDS011;11554;51.106;3.684;2022-08-21T07:00:01;9.90;;;2.70;;
22774;SDS011;11554;51.106;3.684;2022-08-21T07:05:00;9.90;;;2.70;;
22774;SDS011;11554;51.106;3.684;2022-08-21T07:20:00;10.50;;;2.90;;
22774;SDS011;11554;51.106;3.684;2022-08-21T07:25:00;10.50;;;2.90;;
22774;SDS011;11554;51.106;3.684;2022-08-21T07:30:00;12.10;;;3.20;;
22774;SDS011;11554;51.106;3.684;2022-08-21T07:35:00;12.10;;;3.20;;
22774;SDS011;11554;51.106;3.684;2022-08-21T07:40:00;14.00;;;3.50;;
22774;SDS011;11554;51.106;3.684;2022-08-21T07:45:00;14.00;;;3.50;;
22774;SDS011;11554;51.106;3.684;2022-08-21T07:50:00;9.90;;;3.40;;
22774;SDS011;11554;51.106;3.684;2022-08-21T07:55:00;9.90;;;3.40;;
22774;SDS011;11554;51.106;3.684;2022-08-21T08:00:00;12.50;;;3.80;;
22774;SDS011;11554;51.106;3.684;2022-08-21T08:05:01;12.50;;;3.80;;
22774;SDS011;11554;51.106;3.684;2022-08-21T08:10:00;14.20;;;3.90;;
22774;SDS011;11554;51.106;3.684;2022-08-21T08:15:01;14.20;;;3.90;;
22774;SDS011;11554;51.106;3.684;2022-08-21T08:20:00;13.50;;;4.00;;
22774;SDS011;11554;51.106;3.684;2022-08-21T08:25:00;13.50;;;4.00;;
22774;SDS011;11554;51.106;3.684;2022-08-21T08:30:00;11.30;;;3.60;;
22774;SDS011;11554;51.106;3.684;2022-08-21T08:35:00;11.30;;;3.60;;
22774;SDS011;11554;51.106;3.684;2022-08-21T08:40:00;10.20;;;2.90;;
22774;SDS011;11554;51.106;3.684;2022-08-21T08:45:03;10.20;;;2.90;;
22774;SDS011;11554;51.106;3.684;2022-08-21T08:50:05;11.60;;;3.00;;
22774;SDS011;11554;51.106;3.684;2022-08-21T08:55:03;11.60;;;3.00;;
22774;SDS011;11554;51.106;3.684;2022-08-21T09:00:04;10.00;;;2.70;;
22774;SDS011;11554;51.106;3.684;2022-08-21T09:05:00;10.00;;;2.70;;
22774;SDS011;11554;51.106;3.684;2022-08-21T09:10:10;13.20;;;3.30;;
22774;SDS011;11554;51.106;3.684;2022-08-21T09:15:06;13.20;;;3.30;;
22774;SDS011;11554;51.106;3.684;2022-08-21T09:20:13;9.80;;;3.00;;
22774;SDS011;11554;51.106;3.684;2022-08-21T09:25:07;9.80;;;3.00;;
22774;SDS011;11554;51.106;3.684;2022-08-21T09:30:00;11.30;;;2.60;;
22774;SDS011;11554;51.106;3.684;2022-08-21T09:35:04;11.30;;;2.60;;
22774;SDS011;11554;51.106;3.684;2022-08-21T09:40:03;9.30;;;2.50;;
22774;SDS011;11554;51.106;3.684;2022-08-21T09:45:09;9.30;;;2.50;;
22774;SDS011;11554;51.106;3.684;2022-08-21T09:50:09;9.40;;;2.80;;
22774;SDS011;11554;51.106;3.684;2022-08-21T09:55:00;9.40;;;2.80;;
22774;SDS011;11554;51.106;3.684;2022-08-21T10:00:08;18.10;;;2.60;;
22774;SDS011;11554;51.106;3.684;2022-08-21T10:05:06;18.10;;;2.60;;
22774;SDS011;11554;51.106;3.684;2022-08-21T10:10:03;8.90;;;2.30;;
22774;SDS011;11554;51.106;3.684;2022-08-21T10:15:09;8.90;;;2.30;;
22774;SDS011;11554;51.106;3.684;2022-08-21T10:20:06;10.60;;;2.10;;
22774;SDS011;11554;51.106;3.684;2022-08-21T10:25:08;10.60;;;2.10;;
22774;SDS011;11554;51.106;3.684;2022-08-21T10:30:07;9.70;;;2.10;;
22774;SDS011;11554;51.106;3.684;2022-08-21T10:35:07;9.70;;;2.10;;
22774;SDS011;11554;51.106;3.684;2022-08-21T10:40:08;9.40;;;2.10;;
22774;SDS011;11554;51.106;3.684;2022-08-21T10:45:10;9.40;;;2.10;;
22774;SDS011;11554;51.106;3.684;2022-08-21T10:50:10;10.60;;;2.60;;
22774;SDS011;11554;51.106;3.684;2022-08-21T10:55:07;10.60;;;2.60;;
22774;SDS011;11554;51.106;3.684;2022-08-21T11:00:04;8.90;;;2.20;;
22774;SDS011;11554;51.106;3.684;2022-08-21T11:05:10;8.90;;;2.20;;
22774;SDS011;11554;51.106;3.684;2022-08-21T11:10:03;8.70;;;2.10;;
22774;SDS011;11554;51.106;3.684;2022-08-21T11:15:03;8.70;;;2.10;;
22774;SDS011;11554;51.106;3.684;2022-08-21T11:20:07;8.90;;;2.30;;
22774;SDS011;11554;51.106;3.684;2022-08-21T11:25:04;8.90;;;2.30;;
22774;SDS011;11554;51.106;3.684;2022-08-21T11:30:00;8.80;;;1.90;;
22774;SDS011;11554;51.106;3.684;2022-08-21T11:35:03;8.80;;;1.90;;
22774;SDS011;11554;51.106;3.684;2022-08-21T11:40:05;8.80;;;2.00;;
22774;SDS011;11554;51.106;3.684;2022-08-21T11:45:13;8.80;;;2.00;;
22774;SDS011;11554;51.106;3.684;2022-08-21T11:50:11;8.50;;;1.90;;
22774;SDS011;11554;51.106;3.684;2022-08-21T11:55:03;8.50;;;1.90;;
22774;SDS011;11554;51.106;3.684;2022-08-21T12:00:05;8.60;;;2.00;;
22774;SDS011;11554;51.106;3.684;2022-08-21T12:05:03;8.60;;;2.00;;
22774;SDS011;11554;51.106;3.684;2022-08-21T12:10:04;8.10;;;1.90;;
22774;SDS011;11554;51.106;3.684;2022-08-21T12:15:13;8.10;;;1.90;;
22774;SDS011;11554;51.106;3.684;2022-08-21T12:20:24;9.90;;;2.60;;
22774;SDS011;11554;51.106;3.684;2022-08-21T12:25:05;9.90;;;2.60;;
22774;SDS011;11554;51.106;3.684;2022-08-21T12:30:04;10.70;;;2.00;;
22774;SDS011;11554;51.106;3.684;2022-08-21T12:35:06;10.70;;;2.00;;
22774;SDS011;11554;51.106;3.684;2022-08-21T12:40:02;10.40;;;2.20;;
22774;SDS011;11554;51.106;3.684;2022-08-21T12:45:03;10.40;;;2.20;;
22774;SDS011;11554;51.106;3.684;2022-08-21T12:50:03;8.10;;;2.30;;
22774;SDS011;11554;51.106;3.684;2022-08-21T12:55:00;8.10;;;2.30;;
22774;SDS011;11554;51.106;3.684;2022-08-21T13:00:04;11.10;;;2.10;;
22774;SDS011;11554;51.106;3.684;2022-08-21T13:05:03;11.10;;;2.10;;
22774;SDS011;11554;51.106;3.684;2022-08-21T13:10:03;11.90;;;2.10;;
22774;SDS011;11554;51.106;3.684;2022-08-21T13:15:04;11.90;;;2.10;;
22774;SDS011;11554;51.106;3.684;2022-08-21T13:20:06;7.80;;;2.20;;
22774;SDS011;11554;51.106;3.684;2022-08-21T13:25:01;7.80;;;2.20;;
22774;SDS011;11554;51.106;3.684;2022-08-21T13:30:03;10.50;;;2.40;;
22774;SDS011;11554;51.106;3.684;2022-08-21T13:35:07;10.50;;;2.40;;
22774;SDS011;11554;51.106;3.684;2022-08-21T13:40:00;9.40;;;2.00;;
22774;SDS011;11554;51.106;3.684;2022-08-21T13:45:01;9.40;;;2.00;;
22774;SDS011;11554;51.106;3.684;2022-08-21T13:50:00;12.00;;;2.20;;
22774;SDS011;11554;51.106;3.684;2022-08-21T13:55:08;12.00;;;2.20;;
22774;SDS011;11554;51.106;3.684;2022-08-21T14:00:11;10.30;;;2.30;;
22774;SDS011;11554;51.106;3.684;2022-08-21T14:05:01;10.30;;;2.30;;
22774;SDS011;11554;51.106;3.684;2022-08-21T14:10:01;10.00;;;2.30;;
22774;SDS011;11554;51.106;3.684;2022-08-21T14:15:02;10.00;;;2.30;;
22774;SDS011;11554;51.106;3.684;2022-08-21T14:20:01;9.50;;;2.30;;
22774;SDS011;11554;51.106;3.684;2022-08-21T14:25:01;9.50;;;2.30;;
22774;SDS011;11554;51.106;3.684;2022-08-21T14:30:09;9.10;;;2.60;;
22774;SDS011;11554;51.106;3.684;2022-08-21T14:35:00;9.10;;;2.60;;
22774;SDS011;11554;51.106;3.684;2022-08-21T14:40:01;8.00;;;1.90;;
22774;SDS011;11554;51.106;3.684;2022-08-21T14:45:13;8.00;;;1.90;;
22774;SDS011;11554;51.106;3.684;2022-08-21T14:50:00;7.80;;;2.00;;
22774;SDS011;11554;51.106;3.684;2022-08-21T14:55:00;7.80;;;2.00;;
22774;SDS011;11554;51.106;3.684;2022-08-21T15:00:00;9.30;;;1.90;;
22774;SDS011;11554;51.106;3.684;2022-08-21T15:05:00;9.30;;;1.90;;
22774;SDS011;11554;51.106;3.684;2022-08-21T15:10:00;7.50;;;1.80;;
22774;SDS011;11554;51.106;3.684;2022-08-21T15:15:00;7.50;;;1.80;;
22774;SDS011;11554;51.106;3.684;2022-08-21T15:20:00;10.80;;;2.30;;
22774;SDS011;11554;51.106;3.684;2022-08-21T15:25:00;10.80;;;2.30;;
22774;SDS011;11554;51.106;3.684;2022-08-21T15:30:01;8.60;;;2.10;;
22774;SDS011;11554;51.106;3.684;2022-08-21T15:35:00;8.60;;;2.10;;
22774;SDS011;11554;51.106;3.684;2022-08-21T15:40:00;8.70;;;2.40;;
22774;SDS011;11554;51.106;3.684;2022-08-21T15:45:00;8.70;;;2.40;;
22774;SDS011;11554;51.106;3.684;2022-08-21T15:50:00;11.00;;;2.70;;
22774;SDS011;11554;51.106;3.684;2022-08-21T15:55:00;11.00;;;2.70;;
22774;SDS011;11554;51.106;3.684;2022-08-21T16:00:05;11.20;;;2.40;;
22774;SDS011;11554;51.106;3.684;2022-08-21T16:05:00;11.20;;;2.40;;
22774;SDS011;11554;51.106;3.684;2022-08-21T16:10:00;10.10;;;1.90;;
22774;SDS011;11554;51.106;3.684;2022-08-21T16:15:01;10.10;;;1.90;;
22774;SDS011;11554;51.106;3.684;2022-08-21T16:20:02;7.50;;;2.20;;
22774;SDS011;11554;51.106;3.684;2022-08-21T16:25:00;7.50;;;2.20;;
22774;SDS011;11554;51.106;3.684;2022-08-21T16:30:01;8.10;;;2.20;;
22774;SDS011;11554;51.106;3.684;2022-08-21T16:35:01;8.10;;;2.20;;
22774;SDS011;11554;51.106;3.684;2022-08-21T16:40:00;9.90;;;2.40;;
22774;SDS011;11554;51.106;3.684;2022-08-21T16:45:00;9.90;;;2.40;;
22774;SDS011;11554;51.106;3.684;2022-08-21T16:50:00;9.40;;;2.10;;
22774;SDS011;11554;51.106;3.684;2022-08-21T16:55:00;9.40;;;2.10;;
22774;SDS011;11554;51.106;3.684;2022-08-21T17:00:00;11.00;;;2.10;;
22774;SDS011;11554;51.106;3.684;2022-08-21T17:05:00;11.00;;;2.10;;
22774;SDS011;11554;51.106;3.684;2022-08-21T17:10:00;8.70;;;2.10;;
22774;SDS011;11554;51.106;3.684;2022-08-21T17:15:04;8.70;;;2.10;;
22774;SDS011;11554;51.106;3.684;2022-08-21T17:20:00;8.90;;;2.10;;
22774;SDS011;11554;51.106;3.684;2022-08-21T17:25:00;8.90;;;2.10;;
22774;SDS011;11554;51.106;3.684;2022-08-21T17:30:00;10.50;;;2.50;;
22774;SDS011;11554;51.106;3.684;2022-08-21T17:35:00;10.50;;;2.50;;
22774;SDS011;11554;51.106;3.684;2022-08-21T17:40:00;11.40;;;2.40;;
22774;SDS011;11554;51.106;3.684;2022-08-21T17:45:00;11.40;;;2.40;;
22774;SDS011;11554;51.106;3.684;2022-08-21T17:50:00;9.10;;;2.40;;
22774;SDS011;11554;51.106;3.684;2022-08-21T17:55:00;9.10;;;2.40;;
22774;SDS011;11554;51.106;3.684;2022-08-21T18:00:03;11.10;;;2.10;;
22774;SDS011;11554;51.106;3.684;2022-08-21T18:05:00;11.10;;;2.10;;
22774;SDS011;11554;51.106;3.684;2022-08-21T18:10:03;11.40;;;2.20;;
22774;SDS011;11554;51.106;3.684;2022-08-21T18:15:01;11.40;;;2.20;;
22774;SDS011;11554;51.106;3.684;2022-08-21T18:20:01;10.80;;;2.00;;
22774;SDS011;11554;51.106;3.684;2022-08-21T18:25:00;10.80;;;2.00;;
22774;SDS011;11554;51.106;3.684;2022-08-21T18:30:00;10.30;;;2.10;;
22774;SDS011;11554;51.106;3.684;2022-08-21T18:35:01;10.30;;;2.10;;
22774;SDS011;11554;51.106;3.684;2022-08-21T18:40:00;9.00;;;2.30;;
22774;SDS011;11554;51.106;3.684;2022-08-21T18:45:01;9.00;;;2.30;;
22774;SDS011;11554;51.106;3.684;2022-08-21T18:50:00;10.90;;;2.50;;
22774;SDS011;11554;51.106;3.684;2022-08-21T18:55:00;10.90;;;2.50;;
22774;SDS011;11554;51.106;3.684;2022-08-21T19:00:00;14.90;;;2.80;;
22774;SDS011;11554;51.106;3.684;2022-08-21T19:05:00;14.90;;;2.80;;
22774;SDS011;11554;51.106;3.684;2022-08-21T19:10:00;9.70;;;2.70;;
22774;SDS011;11554;51.106;3.684;2022-08-21T19:15:01;9.70;;;2.70;;
22774;SDS011;11554;51.106;3.684;2022-08-21T19:20:06;12.00;;;2.70;;
22774;SDS011;11554;51.106;3.684;2022-08-21T19:25:00;12.00;;;2.70;;
22774;SDS011;11554;51.106;3.684;2022-08-21T19:30:01;13.40;;;2.80;;
22774;SDS011;11554;51.106;3.684;2022-08-21T19:35:00;13.40;;;2.80;;
22774;SDS011;11554;51.106;3.684;2022-08-21T19:40:00;12.00;;;2.80;;
22774;SDS011;11554;51.106;3.684;2022-08-21T19:45:00;12.00;;;2.80;;
22774;SDS011;11554;51.106;3.684;2022-08-21T19:50:03;11.60;;;2.90;;
22774;SDS011;11554;51.106;3.684;2022-08-21T19:55:01;11.60;;;2.90;;
22774;SDS011;11554;51.106;3.684;2022-08-21T20:00:01;10.40;;;2.70;;
22774;SDS011;11554;51.106;3.684;2022-08-21T20:05:00;10.40;;;2.70;;
22774;SDS011;11554;51.106;3.684;2022-08-21T20:10:01;9.80;;;2.70;;
22774;SDS011;11554;51.106;3.684;2022-08-21T20:15:00;9.80;;;2.70;;
22774;SDS011;11554;51.106;3.684;2022-08-21T20:20:00;12.20;;;3.50;;
22774;SDS011;11554;51.106;3.684;2022-08-21T20:25:00;12.20;;;3.50;;
22774;SDS011;11554;51.106;3.684;2022-08-21T20:30:00;9.50;;;3.00;;
22774;SDS011;11554;51.106;3.684;2022-08-21T20:35:00;9.50;;;3.00;;
22774;SDS011;11554;51.106;3.684;2022-08-21T20:40:00;9.60;;;3.00;;
22774;SDS011;11554;51.106;3.684;2022-08-21T20:45:00;9.60;;;3.00;;
22774;SDS011;11554;51.106;3.684;2022-08-21T20:50:04;10.30;;;3.30;;
22774;SDS011;11554;51.106;3.684;2022-08-21T20:55:05;10.30;;;3.30;;
22774;SDS011;11554;51.106;3.684;2022-08-21T21:00:05;14.30;;;4.50;;
22774;SDS011;11554;51.106;3.684;2022-08-21T21:05:03;14.30;;;4.50;;
22774;SDS011;11554;51.106;3.684;2022-08-21T21:10:03;10.90;;;3.60;;
22774;SDS011;11554;51.106;3.684;2022-08-21T21:15:05;10.90;;;3.60;;
22774;SDS011;11554;51.106;3.684;2022-08-21T21:20:06;14.20;;;3.30;;
22774;SDS011;11554;51.106;3.684;2022-08-21T21:25:05;14.20;;;3.30;;
22774;SDS011;11554;51.106;3.684;2022-08-21T21:30:04;12.70;;;3.50;;
22774;SDS011;11554;51.106;3.684;2022-08-21T21:35:03;12.70;;;3.50;;
22774;SDS011;11554;51.106;3.684;2022-08-21T21:40:18;12.90;;;3.80;;
22774;SDS011;11554;51.106;3.684;2022-08-21T21:45:09;12.90;;;3.80;;
22774;SDS011;11554;51.106;3.684;2022-08-21T21:50:14;12.00;;;4.20;;
22774;SDS011;11554;51.106;3.684;2022-08-21T21:55:12;12.00;;;4.20;;
22774;SDS011;11554;51.106;3.684;2022-08-21T22:00:04;16.50;;;4.40;;
22774;SDS011;11554;51.106;3.684;2022-08-21T22:05:05;16.50;;;4.40;;
22774;SDS011;11554;51.106;3.684;2022-08-21T22:10:09;15.50;;;4.00;;
22774;SDS011;11554;51.106;3.684;2022-08-21T22:15:00;15.50;;;4.00;;
22774;SDS011;11554;51.106;3.684;2022-08-21T22:20:06;12.40;;;4.10;;
22774;SDS011;11554;51.106;3.684;2022-08-21T22:25:05;12.40;;;4.10;;
22774;SDS011;11554;51.106;3.684;2022-08-21T22:30:03;14.70;;;4.30;;
22774;SDS011;11554;51.106;3.684;2022-08-21T22:35:04;14.70;;;4.30;;
22774;SDS011;11554;51.106;3.684;2022-08-21T22:40:00;13.70;;;5.10;;
22774;SDS011;11554;51.106;3.684;2022-08-21T22:45:02;13.70;;;5.10;;
22774;SDS011;11554;51.106;3.684;2022-08-21T22:50:04;12.40;;;4.50;;
22774;SDS011;11554;51.106;3.684;2022-08-21T22:55:14;12.40;;;4.50;;
22774;SDS011;11554;51.106;3.684;2022-08-21T23:00:08;15.60;;;4.50;;
22774;SDS011;11554;51.106;3.684;2022-08-21T23:05:04;15.60;;;4.50;;
22774;SDS011;11554;51.106;3.684;2022-08-21T23:10:01;11.40;;;5.00;;
22774;SDS011;11554;51.106;3.684;2022-08-21T23:15:02;11.40;;;5.00;;
22774;SDS011;11554;51.106;3.684;2022-08-21T23:20:06;9.70;;;4.40;;
22774;SDS011;11554;51.106;3.684;2022-08-21T23:25:11;9.70;;;4.40;;
22774;SDS011;11554;51.106;3.684;2022-08-21T23:30:04;9.20;;;3.60;;
22774;SDS011;11554;51.106;3.684;2022-08-21T23:35:08;9.20;;;3.60;;
22774;SDS011;11554;51.106;3.684;2022-08-21T23:40:11;12.50;;;4.40;;
22774;SDS011;11554;51.106;3.684;2022-08-21T23:45:09;12.50;;;4.40;;
22774;SDS011;11554;51.106;3.684;2022-08-21T23:50:04;14.40;;;4.80;;
22774;SDS011;11554;51.106;3.684;2022-08-21T23:55:19;14.40;;;4.80;;
